sensor_id;sensor_type;location;lat;lon;timestamp;temperature;humidity
16321;DHT22;8269;50.990;4.494;2022-12-18T00:01:00;-5.80;99.90
16321;DHT22;8269;50.990;4.494;2022-12-18T00:03:33;-5.80;99.90
16321;DHT22;8269;50.990;4.494;2022-12-18T00:06:00;-5.80;99.90
16321;DHT22;8269;50.990;4.494;2022-12-18T00:08:25;-5.80;99.90
16321;DHT22;8269;50.990;4.494;2022-12-18T00:10:51;-5.80;99.90
16321;DHT22;8269;50.990;4.494;2022-12-18T00:13:17;-5.80;99.90
16321;DHT22;8269;50.990;4.494;2022-12-18T00:15:42;-5.80;99.90
16321;DHT22;8269;50.990;4.494;2022-12-18T00:18:08;-5.80;99.90
16321;DHT22;8269;50.990;4.494;2022-12-18T00:20:38;-5.80;99.90
16321;DHT22;8269;50.990;4.494;2022-12-18T00:23:05;-5.90;99.90
16321;DHT22;8269;50.990;4.494;2022-12-18T00:25:35;-6.00;99.90
16321;DHT22;8269;50.990;4.494;2022-12-18T00:28:02;-6.00;99.90
16321;DHT22;8269;50.990;4.494;2022-12-18T00:30:28;-6.10;99.90
16321;DHT22;8269;50.990;4.494;2022-12-18T00:32:54;-6.10;99.90
16321;DHT22;8269;50.990;4.494;2022-12-18T00:35:20;-6.10;99.90
16321;DHT22;8269;50.990;4.494;2022-12-18T00:37:45;-6.20;99.90
16321;DHT22;8269;50.990;4.494;2022-12-18T00:40:12;-6.20;99.90
16321;DHT22;8269;50.990;4.494;2022-12-18T00:42:38;-6.20;99.90
16321;DHT22;8269;50.990;4.494;2022-12-18T00:45:30;-6.20;99.90
16321;DHT22;8269;50.990;4.494;2022-12-18T00:47:56;-6.30;99.90
16321;DHT22;8269;50.990;4.494;2022-12-18T00:50:24;-6.30;99.90
16321;DHT22;8269;50.990;4.494;2022-12-18T00:52:50;-6.30;99.90
16321;DHT22;8269;50.990;4.494;2022-12-18T00:55:16;-6.30;99.90
16321;DHT22;8269;50.990;4.494;2022-12-18T00:57:42;-6.30;99.90
16321;DHT22;8269;50.990;4.494;2022-12-18T01:00:10;-6.30;99.90
16321;DHT22;8269;50.990;4.494;2022-12-18T01:02:37;-6.30;99.90
16321;DHT22;8269;50.990;4.494;2022-12-18T01:05:03;-6.20;99.90
16321;DHT22;8269;50.990;4.494;2022-12-18T01:07:29;-6.20;99.90
16321;DHT22;8269;50.990;4.494;2022-12-18T01:09:54;-6.30;99.90
16321;DHT22;8269;50.990;4.494;2022-12-18T01:12:20;-6.30;99.90
16321;DHT22;8269;50.990;4.494;2022-12-18T01:14:45;-6.30;99.90
16321;DHT22;8269;50.990;4.494;2022-12-18T01:17:11;-6.30;99.90
16321;DHT22;8269;50.990;4.494;2022-12-18T01:19:36;-6.30;99.90
16321;DHT22;8269;50.990;4.494;2022-12-18T01:22:02;-6.30;99.90
16321;DHT22;8269;50.990;4.494;2022-12-18T01:24:28;-6.20;99.90
16321;DHT22;8269;50.990;4.494;2022-12-18T01:26:54;-6.20;99.90
16321;DHT22;8269;50.990;4.494;2022-12-18T01:29:20;-6.20;99.90
16321;DHT22;8269;50.990;4.494;2022-12-18T01:31:47;-6.20;99.90
16321;DHT22;8269;50.990;4.494;2022-12-18T01:34:12;-6.30;99.90
16321;DHT22;8269;50.990;4.494;2022-12-18T01:36:38;-6.20;99.90
16321;DHT22;8269;50.990;4.494;2022-12-18T01:39:14;-6.30;99.90
16321;DHT22;8269;50.990;4.494;2022-12-18T01:41:40;-6.40;99.90
16321;DHT22;8269;50.990;4.494;2022-12-18T01:44:53;-6.40;99.90
16321;DHT22;8269;50.990;4.494;2022-12-18T01:47:35;-6.50;99.90
16321;DHT22;8269;50.990;4.494;2022-12-18T01:50:11;-6.70;99.90
16321;DHT22;8269;50.990;4.494;2022-12-18T01:52:38;-6.70;99.90
16321;DHT22;8269;50.990;4.494;2022-12-18T01:55:07;-6.70;99.90
16321;DHT22;8269;50.990;4.494;2022-12-18T01:57:33;-6.70;99.90
16321;DHT22;8269;50.990;4.494;2022-12-18T02:00:03;-6.70;99.90
16321;DHT22;8269;50.990;4.494;2022-12-18T02:02:29;-6.70;99.90
16321;DHT22;8269;50.990;4.494;2022-12-18T02:04:55;-6.70;99.90
16321;DHT22;8269;50.990;4.494;2022-12-18T02:18:30;-6.90;99.90
16321;DHT22;8269;50.990;4.494;2022-12-18T02:26:47;-6.90;99.90
16321;DHT22;8269;50.990;4.494;2022-12-18T02:29:21;-6.90;99.90
16321;DHT22;8269;50.990;4.494;2022-12-18T02:31:52;-6.90;99.90
16321;DHT22;8269;50.990;4.494;2022-12-18T02:34:22;-6.80;99.90
16321;DHT22;8269;50.990;4.494;2022-12-18T02:36:51;-6.80;99.90
16321;DHT22;8269;50.990;4.494;2022-12-18T02:39:17;-6.80;99.90
16321;DHT22;8269;50.990;4.494;2022-12-18T02:41:45;-6.70;99.90
16321;DHT22;8269;50.990;4.494;2022-12-18T02:44:13;-6.80;99.90
16321;DHT22;8269;50.990;4.494;2022-12-18T02:46:50;-6.80;99.90
16321;DHT22;8269;50.990;4.494;2022-12-18T02:49:34;-6.80;99.90
16321;DHT22;8269;50.990;4.494;2022-12-18T02:52:17;-6.80;99.90
16321;DHT22;8269;50.990;4.494;2022-12-18T02:57:21;-6.80;99.90
16321;DHT22;8269;50.990;4.494;2022-12-18T03:07:51;-6.70;99.90
16321;DHT22;8269;50.990;4.494;2022-12-18T03:10:23;-6.70;99.90
16321;DHT22;8269;50.990;4.494;2022-12-18T03:12:57;-6.70;99.90
16321;DHT22;8269;50.990;4.494;2022-12-18T03:15:28;-6.70;99.90
16321;DHT22;8269;50.990;4.494;2022-12-18T03:18:01;-6.80;99.90
16321;DHT22;8269;50.990;4.494;2022-12-18T03:20:29;-6.80;99.90
16321;DHT22;8269;50.990;4.494;2022-12-18T03:23:02;-6.80;99.90
16321;DHT22;8269;50.990;4.494;2022-12-18T03:25:30;-6.80;99.90
16321;DHT22;8269;50.990;4.494;2022-12-18T03:27:59;-6.90;99.90
16321;DHT22;8269;50.990;4.494;2022-12-18T03:30:26;-6.80;99.90
16321;DHT22;8269;50.990;4.494;2022-12-18T03:33:14;-6.90;99.90
16321;DHT22;8269;50.990;4.494;2022-12-18T03:35:43;-6.90;99.90
16321;DHT22;8269;50.990;4.494;2022-12-18T03:38:10;-6.90;99.90
16321;DHT22;8269;50.990;4.494;2022-12-18T03:40:59;-6.80;99.90
16321;DHT22;8269;50.990;4.494;2022-12-18T03:43:34;-6.90;99.90
16321;DHT22;8269;50.990;4.494;2022-12-18T03:49:13;-6.80;99.90
16321;DHT22;8269;50.990;4.494;2022-12-18T03:51:48;-6.70;99.90
16321;DHT22;8269;50.990;4.494;2022-12-18T03:54:16;-6.80;99.90
16321;DHT22;8269;50.990;4.494;2022-12-18T03:56:58;-6.80;99.90
16321;DHT22;8269;50.990;4.494;2022-12-18T03:59:25;-6.80;99.90
16321;DHT22;8269;50.990;4.494;2022-12-18T04:01:52;-6.90;99.90
16321;DHT22;8269;50.990;4.494;2022-12-18T04:04:21;-7.00;99.90
16321;DHT22;8269;50.990;4.494;2022-12-18T04:06:49;-7.10;99.90
16321;DHT22;8269;50.990;4.494;2022-12-18T04:09:15;-7.30;99.90
16321;DHT22;8269;50.990;4.494;2022-12-18T04:11:42;-7.40;99.90
16321;DHT22;8269;50.990;4.494;2022-12-18T04:14:10;-7.50;99.90
16321;DHT22;8269;50.990;4.494;2022-12-18T04:16:36;-7.50;99.90
16321;DHT22;8269;50.990;4.494;2022-12-18T04:19:02;-7.50;99.90
16321;DHT22;8269;50.990;4.494;2022-12-18T04:21:28;-7.40;99.90
16321;DHT22;8269;50.990;4.494;2022-12-18T04:23:53;-7.40;99.90
16321;DHT22;8269;50.990;4.494;2022-12-18T04:26:19;-7.30;99.90
16321;DHT22;8269;50.990;4.494;2022-12-18T04:28:45;-7.30;99.90
16321;DHT22;8269;50.990;4.494;2022-12-18T04:31:11;-7.20;99.90
16321;DHT22;8269;50.990;4.494;2022-12-18T04:33:36;-7.20;99.90
16321;DHT22;8269;50.990;4.494;2022-12-18T04:36:02;-7.30;99.90
16321;DHT22;8269;50.990;4.494;2022-12-18T04:38:28;-7.40;99.90
16321;DHT22;8269;50.990;4.494;2022-12-18T04:40:53;-7.50;99.90
16321;DHT22;8269;50.990;4.494;2022-12-18T04:43:19;-7.50;99.90
16321;DHT22;8269;50.990;4.494;2022-12-18T04:45:45;-7.50;99.90
16321;DHT22;8269;50.990;4.494;2022-12-18T04:48:10;-7.50;99.90
16321;DHT22;8269;50.990;4.494;2022-12-18T04:50:36;-7.60;99.90
16321;DHT22;8269;50.990;4.494;2022-12-18T04:53:02;-7.70;99.90
16321;DHT22;8269;50.990;4.494;2022-12-18T04:55:27;-7.80;99.90
16321;DHT22;8269;50.990;4.494;2022-12-18T04:57:53;-7.90;99.90
16321;DHT22;8269;50.990;4.494;2022-12-18T05:00:19;-7.80;99.90
16321;DHT22;8269;50.990;4.494;2022-12-18T05:02:44;-7.80;99.90
16321;DHT22;8269;50.990;4.494;2022-12-18T05:05:10;-7.80;99.90
16321;DHT22;8269;50.990;4.494;2022-12-18T05:07:36;-7.70;99.90
16321;DHT22;8269;50.990;4.494;2022-12-18T05:10:02;-7.70;99.90
16321;DHT22;8269;50.990;4.494;2022-12-18T05:12:28;-7.70;99.90
16321;DHT22;8269;50.990;4.494;2022-12-18T05:14:54;-7.70;99.90
16321;DHT22;8269;50.990;4.494;2022-12-18T05:17:19;-7.70;99.90
16321;DHT22;8269;50.990;4.494;2022-12-18T05:19:45;-7.80;99.90
16321;DHT22;8269;50.990;4.494;2022-12-18T05:22:13;-7.70;99.90
16321;DHT22;8269;50.990;4.494;2022-12-18T05:24:38;-7.70;99.90
16321;DHT22;8269;50.990;4.494;2022-12-18T05:27:04;-7.60;99.90
16321;DHT22;8269;50.990;4.494;2022-12-18T05:29:30;-7.60;99.90
16321;DHT22;8269;50.990;4.494;2022-12-18T05:31:55;-7.60;99.90
16321;DHT22;8269;50.990;4.494;2022-12-18T05:34:21;-7.70;99.90
16321;DHT22;8269;50.990;4.494;2022-12-18T05:36:46;-7.70;99.90
16321;DHT22;8269;50.990;4.494;2022-12-18T05:39:12;-7.80;99.90
16321;DHT22;8269;50.990;4.494;2022-12-18T05:41:38;-7.90;99.90
16321;DHT22;8269;50.990;4.494;2022-12-18T05:44:03;-7.90;99.90
16321;DHT22;8269;50.990;4.494;2022-12-18T05:46:29;-8.00;99.90
16321;DHT22;8269;50.990;4.494;2022-12-18T05:48:55;-8.00;99.90
16321;DHT22;8269;50.990;4.494;2022-12-18T05:51:21;-8.00;99.90
16321;DHT22;8269;50.990;4.494;2022-12-18T05:53:48;-8.00;99.90
16321;DHT22;8269;50.990;4.494;2022-12-18T05:56:16;-7.90;99.90
16321;DHT22;8269;50.990;4.494;2022-12-18T05:58:43;-7.90;99.90
16321;DHT22;8269;50.990;4.494;2022-12-18T06:01:14;-7.80;99.90
16321;DHT22;8269;50.990;4.494;2022-12-18T06:03:46;-7.80;99.90
16321;DHT22;8269;50.990;4.494;2022-12-18T06:06:20;-7.70;99.90
16321;DHT22;8269;50.990;4.494;2022-12-18T06:08:46;-7.70;99.90
16321;DHT22;8269;50.990;4.494;2022-12-18T06:11:12;-7.70;99.90
16321;DHT22;8269;50.990;4.494;2022-12-18T06:13:38;-7.50;99.90
16321;DHT22;8269;50.990;4.494;2022-12-18T06:16:05;-7.50;99.90
16321;DHT22;8269;50.990;4.494;2022-12-18T06:18:32;-7.40;99.90
16321;DHT22;8269;50.990;4.494;2022-12-18T06:20:58;-7.30;99.90
16321;DHT22;8269;50.990;4.494;2022-12-18T06:23:24;-7.10;99.90
16321;DHT22;8269;50.990;4.494;2022-12-18T06:25:50;-7.20;99.90
16321;DHT22;8269;50.990;4.494;2022-12-18T06:28:16;-7.20;99.90
16321;DHT22;8269;50.990;4.494;2022-12-18T06:30:46;-7.10;99.90
16321;DHT22;8269;50.990;4.494;2022-12-18T06:33:12;-7.10;99.90
16321;DHT22;8269;50.990;4.494;2022-12-18T06:35:37;-7.00;99.90
16321;DHT22;8269;50.990;4.494;2022-12-18T06:38:03;-7.10;99.90
16321;DHT22;8269;50.990;4.494;2022-12-18T06:40:29;-7.10;99.90
16321;DHT22;8269;50.990;4.494;2022-12-18T06:42:55;-7.10;99.90
16321;DHT22;8269;50.990;4.494;2022-12-18T06:45:21;-7.10;99.90
16321;DHT22;8269;50.990;4.494;2022-12-18T06:47:46;-7.00;99.90
16321;DHT22;8269;50.990;4.494;2022-12-18T06:50:13;-7.00;99.90
16321;DHT22;8269;50.990;4.494;2022-12-18T06:52:39;-7.10;99.90
16321;DHT22;8269;50.990;4.494;2022-12-18T06:55:06;-7.20;99.90
16321;DHT22;8269;50.990;4.494;2022-12-18T06:57:32;-7.20;99.90
16321;DHT22;8269;50.990;4.494;2022-12-18T06:59:57;-7.30;99.90
16321;DHT22;8269;50.990;4.494;2022-12-18T07:02:23;-7.30;99.90
16321;DHT22;8269;50.990;4.494;2022-12-18T07:04:49;-7.30;99.90
16321;DHT22;8269;50.990;4.494;2022-12-18T07:07:14;-7.30;99.90
16321;DHT22;8269;50.990;4.494;2022-12-18T07:09:40;-7.40;99.90
16321;DHT22;8269;50.990;4.494;2022-12-18T07:12:05;-7.40;99.90
16321;DHT22;8269;50.990;4.494;2022-12-18T07:14:33;-7.40;99.90
16321;DHT22;8269;50.990;4.494;2022-12-18T07:16:59;-7.40;99.90
16321;DHT22;8269;50.990;4.494;2022-12-18T07:19:24;-7.30;99.90
16321;DHT22;8269;50.990;4.494;2022-12-18T07:21:51;-7.20;99.90
16321;DHT22;8269;50.990;4.494;2022-12-18T07:24:16;-7.20;99.90
16321;DHT22;8269;50.990;4.494;2022-12-18T07:26:42;-7.20;99.90
16321;DHT22;8269;50.990;4.494;2022-12-18T07:29:08;-7.20;99.90
16321;DHT22;8269;50.990;4.494;2022-12-18T07:31:33;-7.20;99.90
16321;DHT22;8269;50.990;4.494;2022-12-18T07:36:25;-7.20;99.90
16321;DHT22;8269;50.990;4.494;2022-12-18T07:38:51;-7.10;99.90
16321;DHT22;8269;50.990;4.494;2022-12-18T07:41:18;-7.10;99.90
16321;DHT22;8269;50.990;4.494;2022-12-18T07:43:44;-7.10;99.90
16321;DHT22;8269;50.990;4.494;2022-12-18T07:46:11;-7.10;99.90
16321;DHT22;8269;50.990;4.494;2022-12-18T07:48:36;-7.20;99.90
16321;DHT22;8269;50.990;4.494;2022-12-18T07:51:04;-7.20;99.90
16321;DHT22;8269;50.990;4.494;2022-12-18T07:53:33;-7.20;99.90
16321;DHT22;8269;50.990;4.494;2022-12-18T07:56:01;-7.10;99.90
16321;DHT22;8269;50.990;4.494;2022-12-18T07:58:28;-7.10;99.90
16321;DHT22;8269;50.990;4.494;2022-12-18T08:00:54;-7.10;99.90
16321;DHT22;8269;50.990;4.494;2022-12-18T08:03:20;-7.20;99.90
16321;DHT22;8269;50.990;4.494;2022-12-18T08:05:45;-6.90;99.90
16321;DHT22;8269;50.990;4.494;2022-12-18T08:08:11;-6.90;99.90
16321;DHT22;8269;50.990;4.494;2022-12-18T08:10:37;-6.90;99.90
16321;DHT22;8269;50.990;4.494;2022-12-18T08:13:03;-6.90;99.90
16321;DHT22;8269;50.990;4.494;2022-12-18T08:15:29;-6.80;99.90
16321;DHT22;8269;50.990;4.494;2022-12-18T08:17:57;-6.80;99.90
16321;DHT22;8269;50.990;4.494;2022-12-18T08:20:23;-6.70;99.90
16321;DHT22;8269;50.990;4.494;2022-12-18T08:22:48;-6.60;99.90
16321;DHT22;8269;50.990;4.494;2022-12-18T08:25:15;-6.50;99.90
16321;DHT22;8269;50.990;4.494;2022-12-18T08:27:41;-6.50;99.90
16321;DHT22;8269;50.990;4.494;2022-12-18T08:30:08;-6.50;99.90
16321;DHT22;8269;50.990;4.494;2022-12-18T08:32:34;-6.50;99.90
16321;DHT22;8269;50.990;4.494;2022-12-18T08:35:00;-6.50;99.90
16321;DHT22;8269;50.990;4.494;2022-12-18T08:37:26;-6.50;99.90
16321;DHT22;8269;50.990;4.494;2022-12-18T08:39:51;-6.40;99.90
16321;DHT22;8269;50.990;4.494;2022-12-18T08:42:17;-6.40;99.90
16321;DHT22;8269;50.990;4.494;2022-12-18T08:45:02;-6.40;99.90
16321;DHT22;8269;50.990;4.494;2022-12-18T08:47:28;-6.00;99.90
16321;DHT22;8269;50.990;4.494;2022-12-18T08:49:54;-6.20;99.90
16321;DHT22;8269;50.990;4.494;2022-12-18T08:52:19;-6.10;99.90
16321;DHT22;8269;50.990;4.494;2022-12-18T08:54:45;-6.10;99.90
16321;DHT22;8269;50.990;4.494;2022-12-18T08:57:11;-6.00;99.90
16321;DHT22;8269;50.990;4.494;2022-12-18T08:59:36;-6.00;99.90
16321;DHT22;8269;50.990;4.494;2022-12-18T09:02:02;-5.90;99.90
16321;DHT22;8269;50.990;4.494;2022-12-18T09:04:27;-5.90;99.90
16321;DHT22;8269;50.990;4.494;2022-12-18T09:06:53;-5.80;99.90
16321;DHT22;8269;50.990;4.494;2022-12-18T09:09:18;-5.70;99.90
16321;DHT22;8269;50.990;4.494;2022-12-18T09:11:44;-5.60;99.90
16321;DHT22;8269;50.990;4.494;2022-12-18T09:14:10;-5.60;99.90
16321;DHT22;8269;50.990;4.494;2022-12-18T09:16:36;-5.50;99.90
16321;DHT22;8269;50.990;4.494;2022-12-18T09:19:03;-5.50;99.90
16321;DHT22;8269;50.990;4.494;2022-12-18T09:21:32;-5.40;99.90
16321;DHT22;8269;50.990;4.494;2022-12-18T09:23:58;-5.20;99.90
16321;DHT22;8269;50.990;4.494;2022-12-18T09:26:25;-5.10;99.90
16321;DHT22;8269;50.990;4.494;2022-12-18T09:28:53;-5.10;99.90
16321;DHT22;8269;50.990;4.494;2022-12-18T09:31:21;-5.10;99.90
16321;DHT22;8269;50.990;4.494;2022-12-18T09:33:50;-4.90;99.90
16321;DHT22;8269;50.990;4.494;2022-12-18T09:36:17;-4.90;99.90
16321;DHT22;8269;50.990;4.494;2022-12-18T09:38:43;-5.10;99.90
16321;DHT22;8269;50.990;4.494;2022-12-18T09:41:40;-4.90;99.90
16321;DHT22;8269;50.990;4.494;2022-12-18T09:50:01;-4.80;99.90
16321;DHT22;8269;50.990;4.494;2022-12-18T09:52:43;-4.70;99.90
16321;DHT22;8269;50.990;4.494;2022-12-18T09:55:44;-4.60;99.90
16321;DHT22;8269;50.990;4.494;2022-12-18T09:58:57;-4.50;99.90
16321;DHT22;8269;50.990;4.494;2022-12-18T10:01:19;-4.40;99.90
16321;DHT22;8269;50.990;4.494;2022-12-18T10:03:47;-4.30;99.90
16321;DHT22;8269;50.990;4.494;2022-12-18T10:06:15;-4.30;99.90
16321;DHT22;8269;50.990;4.494;2022-12-18T10:15:21;-4.20;99.90
16321;DHT22;8269;50.990;4.494;2022-12-18T10:17:51;-4.10;99.90
16321;DHT22;8269;50.990;4.494;2022-12-18T10:20:45;-4.10;99.90
16321;DHT22;8269;50.990;4.494;2022-12-18T10:26:12;-4.10;99.90
16321;DHT22;8269;50.990;4.494;2022-12-18T10:28:40;-4.10;99.90
16321;DHT22;8269;50.990;4.494;2022-12-18T10:31:21;-4.00;99.90
16321;DHT22;8269;50.990;4.494;2022-12-18T10:33:54;-4.00;99.90
16321;DHT22;8269;50.990;4.494;2022-12-18T10:36:20;-3.90;99.90
16321;DHT22;8269;50.990;4.494;2022-12-18T10:38:47;-3.90;99.90
16321;DHT22;8269;50.990;4.494;2022-12-18T10:44:12;-3.70;99.90
16321;DHT22;8269;50.990;4.494;2022-12-18T10:46:39;-3.50;99.90
16321;DHT22;8269;50.990;4.494;2022-12-18T10:49:22;-3.50;99.90
16321;DHT22;8269;50.990;4.494;2022-12-18T10:52:25;-3.40;99.90
16321;DHT22;8269;50.990;4.494;2022-12-18T10:54:58;-3.30;99.90
16321;DHT22;8269;50.990;4.494;2022-12-18T10:57:39;-3.30;99.90
16321;DHT22;8269;50.990;4.494;2022-12-18T11:02:44;-3.20;99.90
16321;DHT22;8269;50.990;4.494;2022-12-18T11:05:31;-3.10;99.90
16321;DHT22;8269;50.990;4.494;2022-12-18T11:08:33;-3.00;99.90
16321;DHT22;8269;50.990;4.494;2022-12-18T11:11:23;-3.00;99.90
16321;DHT22;8269;50.990;4.494;2022-12-18T11:14:34;-3.00;99.90
16321;DHT22;8269;50.990;4.494;2022-12-18T11:17:34;-3.00;99.90
16321;DHT22;8269;50.990;4.494;2022-12-18T11:20:36;-2.90;99.90
16321;DHT22;8269;50.990;4.494;2022-12-18T11:23:12;-2.80;99.90
16321;DHT22;8269;50.990;4.494;2022-12-18T11:25:50;-2.80;99.90
16321;DHT22;8269;50.990;4.494;2022-12-18T11:28:39;-2.80;99.90
16321;DHT22;8269;50.990;4.494;2022-12-18T11:31:28;-2.70;99.90
16321;DHT22;8269;50.990;4.494;2022-12-18T11:36:48;-2.50;99.90
16321;DHT22;8269;50.990;4.494;2022-12-18T11:39:31;-2.40;99.90
16321;DHT22;8269;50.990;4.494;2022-12-18T11:42:37;-2.30;99.90
16321;DHT22;8269;50.990;4.494;2022-12-18T11:45:30;-2.30;99.90
16321;DHT22;8269;50.990;4.494;2022-12-18T11:50:41;-2.30;99.90
16321;DHT22;8269;50.990;4.494;2022-12-18T11:53:16;-2.20;99.90
16321;DHT22;8269;50.990;4.494;2022-12-18T11:58:57;-2.20;99.90
16321;DHT22;8269;50.990;4.494;2022-12-18T12:05:11;-2.20;99.90
16321;DHT22;8269;50.990;4.494;2022-12-18T12:21:21;-2.10;99.90
16321;DHT22;8269;50.990;4.494;2022-12-18T12:27:01;-2.00;99.90
16321;DHT22;8269;50.990;4.494;2022-12-18T12:29:38;-2.00;99.90
16321;DHT22;8269;50.990;4.494;2022-12-18T12:35:04;-1.90;99.90
16321;DHT22;8269;50.990;4.494;2022-12-18T12:38:19;-1.90;99.90
16321;DHT22;8269;50.990;4.494;2022-12-18T12:40:51;-1.90;99.90
16321;DHT22;8269;50.990;4.494;2022-12-18T12:46:08;-1.80;99.90
16321;DHT22;8269;50.990;4.494;2022-12-18T12:48:52;-1.80;99.90
16321;DHT22;8269;50.990;4.494;2022-12-18T12:53:53;-1.70;99.90
16321;DHT22;8269;50.990;4.494;2022-12-18T12:56:26;-1.70;99.90
16321;DHT22;8269;50.990;4.494;2022-12-18T12:59:13;-1.70;99.90
16321;DHT22;8269;50.990;4.494;2022-12-18T13:01:41;-1.60;99.90
16321;DHT22;8269;50.990;4.494;2022-12-18T13:04:42;-1.60;99.90
16321;DHT22;8269;50.990;4.494;2022-12-18T13:07:12;-1.50;99.90
16321;DHT22;8269;50.990;4.494;2022-12-18T13:15:45;-1.40;99.90
16321;DHT22;8269;50.990;4.494;2022-12-18T13:18:24;-1.40;99.90
16321;DHT22;8269;50.990;4.494;2022-12-18T13:21:12;-1.30;99.90
16321;DHT22;8269;50.990;4.494;2022-12-18T13:23:44;-1.40;99.90
16321;DHT22;8269;50.990;4.494;2022-12-18T13:28:52;-1.30;99.90
16321;DHT22;8269;50.990;4.494;2022-12-18T13:34:21;-1.30;99.90
16321;DHT22;8269;50.990;4.494;2022-12-18T13:36:48;-1.30;99.90
16321;DHT22;8269;50.990;4.494;2022-12-18T13:39:34;-1.30;99.90
16321;DHT22;8269;50.990;4.494;2022-12-18T13:44:36;-1.40;99.90
16321;DHT22;8269;50.990;4.494;2022-12-18T13:47:36;-1.30;99.90
16321;DHT22;8269;50.990;4.494;2022-12-18T13:50:22;-1.40;99.90
16321;DHT22;8269;50.990;4.494;2022-12-18T13:52:51;-1.30;99.90
16321;DHT22;8269;50.990;4.494;2022-12-18T13:55:19;-1.30;99.90
16321;DHT22;8269;50.990;4.494;2022-12-18T13:57:46;-1.30;99.90
16321;DHT22;8269;50.990;4.494;2022-12-18T14:00:42;-1.20;99.90
16321;DHT22;8269;50.990;4.494;2022-12-18T14:03:21;-1.20;99.90
16321;DHT22;8269;50.990;4.494;2022-12-18T14:06:15;-1.00;99.90
16321;DHT22;8269;50.990;4.494;2022-12-18T14:08:45;-1.10;99.90
16321;DHT22;8269;50.990;4.494;2022-12-18T14:11:23;-1.10;99.90
16321;DHT22;8269;50.990;4.494;2022-12-18T14:13:49;-1.10;99.90
16321;DHT22;8269;50.990;4.494;2022-12-18T14:16:16;-1.00;99.90
16321;DHT22;8269;50.990;4.494;2022-12-18T14:21:25;-1.00;99.90
16321;DHT22;8269;50.990;4.494;2022-12-18T14:26:42;-0.90;99.90
16321;DHT22;8269;50.990;4.494;2022-12-18T14:29:24;-0.80;99.90
16321;DHT22;8269;50.990;4.494;2022-12-18T14:32:13;-0.90;99.90
16321;DHT22;8269;50.990;4.494;2022-12-18T14:34:41;-0.90;99.90
16321;DHT22;8269;50.990;4.494;2022-12-18T14:37:10;-1.00;99.90
16321;DHT22;8269;50.990;4.494;2022-12-18T14:39:36;-1.10;99.90
16321;DHT22;8269;50.990;4.494;2022-12-18T14:42:02;-1.00;99.90
16321;DHT22;8269;50.990;4.494;2022-12-18T14:44:27;-1.00;99.90
16321;DHT22;8269;50.990;4.494;2022-12-18T14:46:56;-1.20;99.90
16321;DHT22;8269;50.990;4.494;2022-12-18T14:49:33;-1.10;99.90
16321;DHT22;8269;50.990;4.494;2022-12-18T14:52:14;-1.10;99.90
16321;DHT22;8269;50.990;4.494;2022-12-18T14:54:46;-1.20;99.90
16321;DHT22;8269;50.990;4.494;2022-12-18T14:57:24;-1.10;99.90
16321;DHT22;8269;50.990;4.494;2022-12-18T14:59:51;-1.10;99.90
16321;DHT22;8269;50.990;4.494;2022-12-18T15:02:22;-1.10;99.90
16321;DHT22;8269;50.990;4.494;2022-12-18T15:05:00;-1.00;99.90
16321;DHT22;8269;50.990;4.494;2022-12-18T15:07:39;-1.00;99.90
16321;DHT22;8269;50.990;4.494;2022-12-18T15:10:17;-1.00;99.90
16321;DHT22;8269;50.990;4.494;2022-12-18T15:15:46;-1.00;99.90
16321;DHT22;8269;50.990;4.494;2022-12-18T15:18:15;-1.00;99.90
16321;DHT22;8269;50.990;4.494;2022-12-18T15:20:59;-0.80;99.90
16321;DHT22;8269;50.990;4.494;2022-12-18T15:23:46;-1.00;99.90
16321;DHT22;8269;50.990;4.494;2022-12-18T15:26:15;-1.00;99.90
16321;DHT22;8269;50.990;4.494;2022-12-18T15:28:57;-1.00;99.90
16321;DHT22;8269;50.990;4.494;2022-12-18T15:31:45;-1.10;99.90
16321;DHT22;8269;50.990;4.494;2022-12-18T15:34:24;-0.80;99.90
16321;DHT22;8269;50.990;4.494;2022-12-18T15:36:51;-1.00;99.90
16321;DHT22;8269;50.990;4.494;2022-12-18T15:39:17;-1.10;99.90
16321;DHT22;8269;50.990;4.494;2022-12-18T15:41:43;-1.00;99.90
16321;DHT22;8269;50.990;4.494;2022-12-18T15:44:29;-1.20;99.90
16321;DHT22;8269;50.990;4.494;2022-12-18T15:46:57;-1.00;99.90
16321;DHT22;8269;50.990;4.494;2022-12-18T15:49:23;-0.90;99.90
16321;DHT22;8269;50.990;4.494;2022-12-18T15:51:52;-0.90;99.90
16321;DHT22;8269;50.990;4.494;2022-12-18T15:54:21;-0.90;99.90
16321;DHT22;8269;50.990;4.494;2022-12-18T15:57:08;-0.90;99.90
16321;DHT22;8269;50.990;4.494;2022-12-18T15:59:52;-0.90;99.90
16321;DHT22;8269;50.990;4.494;2022-12-18T16:02:19;-0.90;99.90
16321;DHT22;8269;50.990;4.494;2022-12-18T16:04:46;-0.80;99.90
16321;DHT22;8269;50.990;4.494;2022-12-18T16:07:12;-0.80;99.90
16321;DHT22;8269;50.990;4.494;2022-12-18T16:09:38;-0.80;99.90
16321;DHT22;8269;50.990;4.494;2022-12-18T16:12:05;-0.80;99.90
16321;DHT22;8269;50.990;4.494;2022-12-18T16:14:31;-0.80;99.90
16321;DHT22;8269;50.990;4.494;2022-12-18T16:17:20;-0.70;99.90
16321;DHT22;8269;50.990;4.494;2022-12-18T16:19:45;-0.70;99.90
16321;DHT22;8269;50.990;4.494;2022-12-18T16:22:25;-0.70;99.90
16321;DHT22;8269;50.990;4.494;2022-12-18T16:24:52;-0.70;99.90
16321;DHT22;8269;50.990;4.494;2022-12-18T16:27:18;-0.70;99.90
16321;DHT22;8269;50.990;4.494;2022-12-18T16:29:44;-0.70;99.90
16321;DHT22;8269;50.990;4.494;2022-12-18T16:32:26;-0.60;99.90
16321;DHT22;8269;50.990;4.494;2022-12-18T16:34:52;-0.60;99.90
16321;DHT22;8269;50.990;4.494;2022-12-18T16:37:18;-0.60;99.90
16321;DHT22;8269;50.990;4.494;2022-12-18T16:39:43;-0.60;99.90
16321;DHT22;8269;50.990;4.494;2022-12-18T16:42:18;-0.60;99.90
16321;DHT22;8269;50.990;4.494;2022-12-18T16:44:45;-0.60;99.90
16321;DHT22;8269;50.990;4.494;2022-12-18T16:47:12;-0.50;99.90
16321;DHT22;8269;50.990;4.494;2022-12-18T16:49:38;-0.50;99.90
16321;DHT22;8269;50.990;4.494;2022-12-18T16:52:05;-0.50;99.90
16321;DHT22;8269;50.990;4.494;2022-12-18T16:54:31;-0.50;99.90
16321;DHT22;8269;50.990;4.494;2022-12-18T16:56:58;-0.50;99.90
16321;DHT22;8269;50.990;4.494;2022-12-18T16:59:25;-0.50;99.90
16321;DHT22;8269;50.990;4.494;2022-12-18T17:01:51;-0.50;99.90
16321;DHT22;8269;50.990;4.494;2022-12-18T17:04:17;-0.40;99.90
16321;DHT22;8269;50.990;4.494;2022-12-18T17:06:44;-0.50;99.90
16321;DHT22;8269;50.990;4.494;2022-12-18T17:09:13;-0.50;99.90
16321;DHT22;8269;50.990;4.494;2022-12-18T17:11:41;-0.50;99.90
16321;DHT22;8269;50.990;4.494;2022-12-18T17:14:09;-0.40;99.90
16321;DHT22;8269;50.990;4.494;2022-12-18T17:16:34;-0.40;99.90
16321;DHT22;8269;50.990;4.494;2022-12-18T17:19:00;-0.30;99.90
16321;DHT22;8269;50.990;4.494;2022-12-18T17:21:26;-0.40;99.90
16321;DHT22;8269;50.990;4.494;2022-12-18T17:23:51;-0.40;99.90
16321;DHT22;8269;50.990;4.494;2022-12-18T17:26:17;-0.30;99.90
16321;DHT22;8269;50.990;4.494;2022-12-18T17:28:42;-0.30;99.90
16321;DHT22;8269;50.990;4.494;2022-12-18T17:31:23;-0.30;99.90
16321;DHT22;8269;50.990;4.494;2022-12-18T17:33:49;-0.30;99.90
16321;DHT22;8269;50.990;4.494;2022-12-18T17:36:15;-0.40;99.90
16321;DHT22;8269;50.990;4.494;2022-12-18T17:38:41;-0.30;99.90
16321;DHT22;8269;50.990;4.494;2022-12-18T17:41:09;-0.20;99.90
16321;DHT22;8269;50.990;4.494;2022-12-18T17:43:36;-0.20;99.90
16321;DHT22;8269;50.990;4.494;2022-12-18T17:46:04;-0.20;99.90
16321;DHT22;8269;50.990;4.494;2022-12-18T17:48:32;-0.10;99.90
16321;DHT22;8269;50.990;4.494;2022-12-18T17:51:01;-0.10;99.90
16321;DHT22;8269;50.990;4.494;2022-12-18T17:53:27;-0.10;99.90
16321;DHT22;8269;50.990;4.494;2022-12-18T17:55:57;-0.10;99.90
16321;DHT22;8269;50.990;4.494;2022-12-18T17:58:24;0.00;99.90
16321;DHT22;8269;50.990;4.494;2022-12-18T18:00:50;0.00;99.90
16321;DHT22;8269;50.990;4.494;2022-12-18T18:03:15;0.00;99.90